Latest Coastal Weather Observations for Hillarys Point Boat Harbour

IDW60701

Issued at 4:13 pm WST Friday 27 March 2015 (issued every 10 minutes, with the page automatically refreshed every 10 minutes)

About coastal observations | Map of coastal stations | Coastal observations for WA | Marine services | Other Formats
Station Details ID: 009265 Name: HILLARYS BOAT HARBOUR NTC AWS Lat: -31.83 Lon: 115.74 Height: 0.0 m
Data from the previous 72 hours. | See also: Recent months for locations in Western Australia
Date/Time
WST
Temp

°C
Wind Pressure Rain
since 9am
mm
Weather Cloud Vis
km
Sea
Height
m
Swell
Dir
 
Speed
knots
Gust
knots
hPa Trend Height
m
Period
s
Dir
27/04:00pm 22.6 SSW 7 14 1017.0 - - - - - - - - -
27/03:30pm 22.6 SSW 7 14 1017.1 - - - - - - - - -
27/03:00pm 22.6 SSW 7 12 1017.3 - - - - - - - - -
27/02:30pm 22.6 SSW 7 13 1017.5 - - - - - - - - -
27/02:00pm 22.5 SSW 6 10 1017.7 - - - - - - - - -
27/01:30pm 22.5 SW 7 11 1018.0 - - - - - - - - -
27/01:00pm 21.9 SW 8 12 1018.3 - - - - - - - - -
27/12:30pm 22.1 SW 8 11 1018.6 - - - - - - - - -
27/12:00pm 22.3 SW 5 9 1019.1 - - - - - - - - -
27/11:30am 21.6 SW 7 9 1019.4 - - - - - - - - -
27/11:00am 21.4 WSW 5 7 1019.5 - - - - - - - - -
27/10:30am 21.6 SW 4 6 1019.7 - - - - - - - - -
27/10:00am 23.1 NE 2 5 1019.9 - - - - - - - - -
27/09:30am 21.9 E 3 6 1020.0 - - - - - - - - -
27/09:00am 20.9 ENE 6 9 1019.8 - - - - - - - - -
27/08:30am 19.9 ENE 5 9 1019.8 - - - - - - - - -
27/08:00am 19.2 ENE 7 10 1019.7 - - - - - - - - -
27/07:30am 18.5 ENE 5 8 1019.7 - - - - - - - - -
27/07:00am 17.5 ENE 5 9 1019.7 - - - - - - - - -
27/06:30am 17.5 ENE 4 7 1019.6 - - - - - - - - -
27/06:00am 17.4 ENE 5 8 1019.5 - - - - - - - - -
27/05:30am 17.4 ENE 5 8 1019.2 - - - - - - - - -
27/05:00am 17.4 ENE 3 6 1019.1 - - - - - - - - -
27/04:30am 17.4 ENE 5 8 1018.8 - - - - - - - - -
27/04:00am 17.9 ENE 5 9 1018.8 - - - - - - - - -
27/03:30am 18.0 ENE 3 6 1019.3 - - - - - - - - -
27/03:00am 18.0 ENE 2 6 1019.5 - - - - - - - - -
27/02:30am 18.3 E 4 8 1019.4 - - - - - - - - -
27/02:00am 18.8 E 2 5 1019.9 - - - - - - - - -
27/01:30am 19.4 E 4 8 1020.1 - - - - - - - - -
27/01:00am 19.6 E 2 6 1020.3 - - - - - - - - -
27/12:30am 19.8 E 1 6 1020.8 - - - - - - - - -
27/12:00am 19.3 ENE 3 8 1021.0 - - - - - - - - -
 
Date/Time
WST
Temp

°C
Wind Pressure Rain
since 9am
mm
Weather Cloud Vis
km
Sea
Height
m
Swell
Dir
 
Speed
knots
Gust
knots
hPa Trend Height
m
Period
s
Dir
26/11:30pm 20.1 E 4 7 1021.0 - - - - - - - - -
26/11:00pm 20.4 E 3 7 1020.9 - - - - - - - - -
26/10:30pm 20.4 E 3 8 1021.3 - - - - - - - - -
26/10:00pm 20.4 ESE 1 4 1021.2 - - - - - - - - -
26/09:30pm 20.4 E 2 5 1021.3 - - - - - - - - -
26/09:00pm 21.1 E 2 5 1021.7 - - - - - - - - -
26/08:30pm 20.8 ENE 1 1 1021.8 - - - - - - - - -
26/08:00pm 21.1 N 2 5 1021.7 - - - - - - - - -
26/07:30pm 22.1 NW 3 5 1021.2 - - - - - - - - -
26/07:00pm 23.0 NNE 1 3 1020.7 - - - - - - - - -
26/06:30pm 24.1 NNE 5 9 1020.0 - - - - - - - - -
26/06:00pm 25.2 NE 4 7 1019.6 - - - - - - - - -
26/05:30pm 25.5 ENE 6 9 1019.1 - - - - - - - - -
26/05:00pm 25.6 NE 4 8 1019.1 - - - - - - - - -
26/04:30pm 26.4 NNE 6 13 1019.4 - - - - - - - - -
26/04:00pm 27.0 NNE 9 17 1018.9 - - - - - - - - -
26/03:30pm 28.5 NNE 6 10 1018.7 - - - - - - - - -
26/03:00pm 28.6 ENE 7 13 1018.6 - - - - - - - - -
26/02:30pm 29.0 ENE 7 12 1018.7 - - - - - - - - -
26/02:00pm 28.6 ENE 8 14 1019.1 - - - - - - - - -
26/01:30pm 28.9 ENE 8 14 1019.4 - - - - - - - - -
26/01:00pm 28.4 ENE 11 18 1020.0 - - - - - - - - -
26/12:30pm 28.4 ENE 9 16 1020.3 - - - - - - - - -
26/12:00pm 27.5 ENE 10 20 1020.9 - - - - - - - - -
26/11:30am 26.3 ENE 12 19 1021.4 - - - - - - - - -
26/11:00am 25.8 ENE 11 19 1021.8 - - - - - - - - -
26/10:30am 24.6 ENE 14 23 1022.1 - - - - - - - - -
26/10:00am 23.9 ENE 13 22 1022.3 - - - - - - - - -
26/09:30am 22.7 ENE 13 20 1022.4 - - - - - - - - -
26/09:00am 20.8 ENE 12 20 1022.5 - - - - - - - - -
26/08:30am 19.8 ENE 14 24 1022.7 - - - - - - - - -
26/08:00am 19.1 ENE 12 21 1022.5 - - - - - - - - -
26/07:30am 17.8 ENE 11 19 1022.4 - - - - - - - - -
26/07:00am 17.3 ENE 9 16 1022.3 - - - - - - - - -
26/06:30am 17.2 ENE 10 18 1022.2 - - - - - - - - -
26/06:00am 17.4 ENE 11 19 1021.9 - - - - - - - - -
26/05:30am 17.6 ENE 10 18 1021.9 - - - - - - - - -
26/05:00am 17.8 ENE 11 16 1021.8 - - - - - - - - -
26/04:30am 18.0 ENE 11 18 1021.6 - - - - - - - - -
26/04:00am 18.1 ENE 10 17 1021.6 - - - - - - - - -
26/03:30am 18.3 E 9 17 1021.6 - - - - - - - - -
26/03:00am 18.3 E 9 16 1021.6 - - - - - - - - -
26/02:30am 18.4 E 10 17 1021.8 - - - - - - - - -
26/02:00am 18.6 E 8 16 1021.9 - - - - - - - - -
26/01:30am 18.9 E 8 15 1022.1 - - - - - - - - -
26/01:00am 19.4 E 9 17 1022.2 - - - - - - - - -
26/12:30am 19.9 E 9 20 1022.3 - - - - - - - - -
26/12:00am 20.7 E 6 12 1022.3 - - - - - - - - -
 
Date/Time
WST
Temp

°C
Wind Pressure Rain
since 9am
mm
Weather Cloud Vis
km
Sea
Height
m
Swell
Dir
 
Speed
knots
Gust
knots
hPa Trend Height
m
Period
s
Dir
25/11:30pm 21.4 E 6 13 1022.1 - - - - - - - - -
25/11:00pm 22.0 E 5 15 1021.9 - - - - - - - - -
25/10:30pm 22.7 E 4 9 1021.8 - - - - - - - - -
25/10:00pm 22.8 E 2 6 1021.9 - - - - - - - - -
25/09:30pm 22.9 ESE 2 8 1021.9 - - - - - - - - -
25/09:00pm 23.4 ESE 2 6 1021.9 - - - - - - - - -
25/08:30pm 23.9 SE 2 6 1021.6 - - - - - - - - -
25/08:00pm 24.4 ESE 2 6 1021.4 - - - - - - - - -
25/07:30pm 24.9 SE 1 4 1021.1 - - - - - - - - -
25/07:00pm 25.7 E 2 5 1020.9 - - - - - - - - -
25/06:30pm 26.4 E 3 7 1020.8 - - - - - - - - -
25/06:00pm 27.3 E 3 7 1020.7 - - - - - - - - -
25/05:30pm 27.7 E 6 12 1020.6 - - - - - - - - -
25/05:00pm 28.0 ENE 7 14 1020.6 - - - - - - - - -
25/04:30pm 27.8 E 4 9 1020.7 - - - - - - - - -
25/04:00pm 28.2 ESE 4 10 1020.8 - - - - - - - - -
25/03:30pm 27.6 E 6 13 1021.0 - - - - - - - - -
25/03:00pm 27.7 SE 4 11 1021.1 - - - - - - - - -
25/02:30pm 27.4 SE 4 9 1021.3 - - - - - - - - -
25/02:00pm 27.0 E 4 11 1021.5 - - - - - - - - -
25/01:30pm 26.0 NE 6 12 1022.0 - - - - - - - - -
25/01:00pm 26.1 ENE 5 11 1022.5 - - - - - - - - -
25/12:30pm 25.4 E 5 14 1022.8 - - - - - - - - -
25/12:00pm 24.6 ENE 7 14 1023.1 - - - - - - - - -
25/11:30am 24.0 ENE 8 14 1023.4 - - - - - - - - -
25/11:00am 23.4 ENE 8 15 1023.7 - - - - - - - - -
25/10:30am 22.1 ENE 11 18 1024.1 - - - - - - - - -
25/10:00am 21.2 ENE 9 15 1024.2 - - - - - - - - -
25/09:30am 20.4 ENE 12 20 1024.2 - - - - - - - - -
25/09:00am 19.1 ENE 9 16 1024.4 - - - - - - - - -
25/08:30am 18.2 E 8 15 1024.4 - - - - - - - - -
25/08:00am 17.3 E 8 14 1024.3 - - - - - - - - -
25/07:30am 16.6 E 9 16 1024.2 - - - - - - - - -
25/07:00am 16.3 E 8 14 1023.9 - - - - - - - - -
25/06:30am 16.1 ENE 9 15 1023.7 - - - - - - - - -
25/06:00am 16.3 E 9 17 1023.4 - - - - - - - - -
25/05:30am 16.4 E 9 18 1022.9 - - - - - - - - -
25/05:00am 16.5 E 9 17 1022.7 - - - - - - - - -
25/04:30am 16.7 E 9 16 1022.4 - - - - - - - - -
25/04:00am 16.9 E 8 14 1022.2 - - - - - - - - -
25/03:30am 17.2 ENE 9 16 1022.1 - - - - - - - - -
25/03:00am 17.4 E 8 15 1022.0 - - - - - - - - -
25/02:30am 17.7 E 9 14 1022.0 - - - - - - - - -
25/02:00am 18.1 E 7 16 1022.0 - - - - - - - - -
25/01:30am 18.4 E 6 13 1021.9 - - - - - - - - -
25/01:00am 18.9 E 5 12 1021.9 - - - - - - - - -
25/12:30am 18.4 E 1 5 1021.8 - - - - - - - - -
25/12:00am 18.5 SSE 1 5 1021.7 - - - - - - - - -
 
Date/Time
WST
Temp

°C
Wind Pressure Rain
since 9am
mm
Weather Cloud Vis
km
Sea
Height
m
Swell
Dir
 
Speed
knots
Gust
knots
hPa Trend Height
m
Period
s
Dir
24/11:30pm 18.7 SE 1 5 1021.9 - - - - - - - - -
24/11:00pm 19.0 SE 2 5 1021.7 - - - - - - - - -
24/10:30pm 19.3 SE 3 6 1021.6 - - - - - - - - -
24/10:00pm 19.6 SSE 4 7 1021.7 - - - - - - - - -
24/09:30pm 20.0 SSE 4 8 1021.6 - - - - - - - - -
24/09:00pm 20.3 SSE 4 8 1021.4 - - - - - - - - -
24/08:30pm 20.9 SSE 5 11 1021.2 - - - - - - - - -
24/08:00pm 21.0 S 5 13 1021.1 - - - - - - - - -
24/07:30pm 21.1 S 6 16 1020.9 - - - - - - - - -
24/07:00pm 21.0 S 6 14 1020.8 - - - - - - - - -
24/06:30pm 21.1 SSW 8 18 1020.5 - - - - - - - - -
24/06:00pm 21.1 SSW 8 16 1020.4 - - - - - - - - -
24/05:30pm 21.3 SSW 9 18 1020.2 - - - - - - - - -
24/05:00pm 21.3 SSW 9 16 1020.1 - - - - - - - - -
24/04:30pm 21.3 SSW 10 17 1019.9 - - - - - - - - -

Other Formats:

Comma delimited format used in spreadsheet applications
http://www.bom.gov.au/fwo/IDW60701/IDW60701.95605.axf

JavaScript Object Notation format (JSON) in row-major order
http://www.bom.gov.au/fwo/IDW60701/IDW60701.95605.json